sensor_id;sensor_type;location;lat;lon;timestamp;P1;durP1;ratioP1;P2;durP2;ratioP2
41657;SDS011;27347;57.132;-2.084;2022-09-09T00:04:30;26.98;;;5.85;;
41657;SDS011;27347;57.132;-2.084;2022-09-09T00:09:29;26.23;;;5.70;;
41657;SDS011;27347;57.132;-2.084;2022-09-09T00:14:51;22.63;;;5.50;;
41657;SDS011;27347;57.132;-2.084;2022-09-09T00:17:43;28.95;;;6.47;;
41657;SDS011;27347;57.132;-2.084;2022-09-09T00:23:37;27.35;;;6.15;;
41657;SDS011;27347;57.132;-2.084;2022-09-09T00:26:14;34.70;;;6.13;;
41657;SDS011;27347;57.132;-2.084;2022-09-09T00:31:33;23.63;;;4.88;;
41657;SDS011;27347;57.132;-2.084;2022-09-09T00:34:02;30.88;;;5.75;;
41657;SDS011;27347;57.132;-2.084;2022-09-09T00:36:30;22.17;;;5.07;;
41657;SDS011;27347;57.132;-2.084;2022-09-09T00:38:57;33.38;;;6.13;;
41657;SDS011;27347;57.132;-2.084;2022-09-09T00:44:25;41.05;;;8.07;;
41657;SDS011;27347;57.132;-2.084;2022-09-09T00:55:07;32.38;;;5.90;;
41657;SDS011;27347;57.132;-2.084;2022-09-09T00:57:51;34.83;;;6.93;;
41657;SDS011;27347;57.132;-2.084;2022-09-09T01:00:21;45.67;;;7.65;;
41657;SDS011;27347;57.132;-2.084;2022-09-09T01:02:52;38.70;;;8.13;;
41657;SDS011;27347;57.132;-2.084;2022-09-09T01:08:35;44.63;;;7.22;;
41657;SDS011;27347;57.132;-2.084;2022-09-09T01:11:01;40.67;;;7.10;;
41657;SDS011;27347;57.132;-2.084;2022-09-09T01:13:33;40.30;;;7.75;;
41657;SDS011;27347;57.132;-2.084;2022-09-09T01:16:00;36.40;;;7.55;;
41657;SDS011;27347;57.132;-2.084;2022-09-09T01:18:32;32.55;;;7.05;;
41657;SDS011;27347;57.132;-2.084;2022-09-09T01:26:39;45.38;;;8.35;;
41657;SDS011;27347;57.132;-2.084;2022-09-09T01:29:10;54.53;;;9.23;;
41657;SDS011;27347;57.132;-2.084;2022-09-09T01:31:39;40.17;;;7.63;;
41657;SDS011;27347;57.132;-2.084;2022-09-09T01:34:12;32.75;;;6.90;;
41657;SDS011;27347;57.132;-2.084;2022-09-09T01:37:24;31.80;;;5.93;;
41657;SDS011;27347;57.132;-2.084;2022-09-09T01:39:34;36.20;;;7.18;;
41657;SDS011;27347;57.132;-2.084;2022-09-09T01:42:01;23.83;;;6.20;;
41657;SDS011;27347;57.132;-2.084;2022-09-09T01:44:27;36.60;;;6.68;;
41657;SDS011;27347;57.132;-2.084;2022-09-09T01:46:53;32.47;;;6.53;;
41657;SDS011;27347;57.132;-2.084;2022-09-09T01:49:19;32.13;;;7.72;;
41657;SDS011;27347;57.132;-2.084;2022-09-09T01:51:45;23.88;;;5.93;;
41657;SDS011;27347;57.132;-2.084;2022-09-09T01:54:13;26.17;;;5.95;;
41657;SDS011;27347;57.132;-2.084;2022-09-09T02:04:56;29.10;;;7.15;;
41657;SDS011;27347;57.132;-2.084;2022-09-09T02:07:40;29.60;;;7.05;;
41657;SDS011;27347;57.132;-2.084;2022-09-09T02:12:47;24.92;;;5.45;;
41657;SDS011;27347;57.132;-2.084;2022-09-09T02:15:32;34.90;;;6.47;;
41657;SDS011;27347;57.132;-2.084;2022-09-09T02:18:01;26.23;;;5.57;;
41657;SDS011;27347;57.132;-2.084;2022-09-09T02:20:31;34.35;;;6.28;;
41657;SDS011;27347;57.132;-2.084;2022-09-09T02:22:58;20.58;;;4.55;;
41657;SDS011;27347;57.132;-2.084;2022-09-09T02:25:25;19.45;;;4.43;;
41657;SDS011;27347;57.132;-2.084;2022-09-09T02:27:52;24.10;;;4.45;;
41657;SDS011;27347;57.132;-2.084;2022-09-09T02:30:18;12.77;;;3.45;;
41657;SDS011;27347;57.132;-2.084;2022-09-09T02:32:44;18.63;;;4.03;;
41657;SDS011;27347;57.132;-2.084;2022-09-09T02:35:12;22.33;;;4.13;;
41657;SDS011;27347;57.132;-2.084;2022-09-09T02:37:40;20.80;;;4.13;;
41657;SDS011;27347;57.132;-2.084;2022-09-09T02:40:08;28.98;;;5.03;;
41657;SDS011;27347;57.132;-2.084;2022-09-09T02:42:42;25.35;;;4.80;;
41657;SDS011;27347;57.132;-2.084;2022-09-09T02:45:09;29.38;;;5.43;;
41657;SDS011;27347;57.132;-2.084;2022-09-09T02:47:38;27.25;;;4.97;;
41657;SDS011;27347;57.132;-2.084;2022-09-09T02:50:13;21.02;;;4.60;;
41657;SDS011;27347;57.132;-2.084;2022-09-09T02:57:50;48.58;;;7.18;;
41657;SDS011;27347;57.132;-2.084;2022-09-09T03:00:22;34.72;;;6.03;;
41657;SDS011;27347;57.132;-2.084;2022-09-09T03:02:49;32.42;;;6.28;;
41657;SDS011;27347;57.132;-2.084;2022-09-09T03:05:14;38.40;;;7.13;;
41657;SDS011;27347;57.132;-2.084;2022-09-09T03:07:40;40.88;;;7.93;;
41657;SDS011;27347;57.132;-2.084;2022-09-09T03:10:05;29.83;;;6.18;;
41657;SDS011;27347;57.132;-2.084;2022-09-09T03:12:31;30.23;;;6.28;;
41657;SDS011;27347;57.132;-2.084;2022-09-09T03:14:58;37.78;;;6.93;;
41657;SDS011;27347;57.132;-2.084;2022-09-09T03:17:24;38.28;;;7.13;;
41657;SDS011;27347;57.132;-2.084;2022-09-09T03:19:49;34.05;;;6.97;;
41657;SDS011;27347;57.132;-2.084;2022-09-09T03:22:17;35.83;;;8.18;;
41657;SDS011;27347;57.132;-2.084;2022-09-09T03:24:42;38.28;;;7.70;;
41657;SDS011;27347;57.132;-2.084;2022-09-09T03:27:11;44.83;;;8.70;;
41657;SDS011;27347;57.132;-2.084;2022-09-09T03:29:37;39.20;;;6.57;;
41657;SDS011;27347;57.132;-2.084;2022-09-09T03:32:02;17.98;;;5.38;;
41657;SDS011;27347;57.132;-2.084;2022-09-09T03:34:27;34.03;;;6.57;;
41657;SDS011;27347;57.132;-2.084;2022-09-09T03:36:53;36.72;;;6.95;;
41657;SDS011;27347;57.132;-2.084;2022-09-09T03:39:18;40.58;;;6.95;;
41657;SDS011;27347;57.132;-2.084;2022-09-09T03:41:44;40.40;;;7.25;;
41657;SDS011;27347;57.132;-2.084;2022-09-09T03:44:10;20.90;;;5.00;;
41657;SDS011;27347;57.132;-2.084;2022-09-09T03:46:35;39.35;;;7.63;;
41657;SDS011;27347;57.132;-2.084;2022-09-09T03:49:01;40.95;;;7.45;;
41657;SDS011;27347;57.132;-2.084;2022-09-09T03:51:27;35.53;;;6.78;;
41657;SDS011;27347;57.132;-2.084;2022-09-09T03:53:52;29.55;;;5.90;;
41657;SDS011;27347;57.132;-2.084;2022-09-09T03:56:20;24.20;;;5.80;;
41657;SDS011;27347;57.132;-2.084;2022-09-09T03:58:46;27.55;;;5.18;;
41657;SDS011;27347;57.132;-2.084;2022-09-09T04:01:12;31.00;;;5.65;;
41657;SDS011;27347;57.132;-2.084;2022-09-09T04:03:39;22.27;;;4.40;;
41657;SDS011;27347;57.132;-2.084;2022-09-09T04:06:06;26.75;;;5.22;;
41657;SDS011;27347;57.132;-2.084;2022-09-09T04:08:32;22.63;;;4.38;;
41657;SDS011;27347;57.132;-2.084;2022-09-09T04:10:58;26.33;;;5.05;;
41657;SDS011;27347;57.132;-2.084;2022-09-09T04:13:26;18.83;;;4.57;;
41657;SDS011;27347;57.132;-2.084;2022-09-09T04:15:55;21.85;;;4.57;;
41657;SDS011;27347;57.132;-2.084;2022-09-09T04:18:21;20.83;;;5.00;;
41657;SDS011;27347;57.132;-2.084;2022-09-09T04:20:51;25.38;;;5.43;;
41657;SDS011;27347;57.132;-2.084;2022-09-09T04:23:17;15.88;;;3.97;;
41657;SDS011;27347;57.132;-2.084;2022-09-09T04:25:47;22.13;;;4.35;;
41657;SDS011;27347;57.132;-2.084;2022-09-09T04:28:14;16.52;;;3.75;;
41657;SDS011;27347;57.132;-2.084;2022-09-09T04:30:40;19.70;;;3.55;;
41657;SDS011;27347;57.132;-2.084;2022-09-09T04:33:06;13.18;;;3.38;;
41657;SDS011;27347;57.132;-2.084;2022-09-09T04:35:32;15.68;;;3.53;;
41657;SDS011;27347;57.132;-2.084;2022-09-09T04:37:58;19.65;;;5.43;;
41657;SDS011;27347;57.132;-2.084;2022-09-09T04:40:23;24.10;;;5.95;;
41657;SDS011;27347;57.132;-2.084;2022-09-09T04:42:49;28.40;;;6.50;;
41657;SDS011;27347;57.132;-2.084;2022-09-09T04:45:15;31.88;;;6.53;;
41657;SDS011;27347;57.132;-2.084;2022-09-09T04:47:40;25.52;;;5.85;;
41657;SDS011;27347;57.132;-2.084;2022-09-09T04:50:06;38.97;;;7.65;;
41657;SDS011;27347;57.132;-2.084;2022-09-09T04:52:33;38.92;;;8.05;;
41657;SDS011;27347;57.132;-2.084;2022-09-09T04:55:00;30.92;;;6.95;;
41657;SDS011;27347;57.132;-2.084;2022-09-09T04:57:26;25.90;;;5.90;;
41657;SDS011;27347;57.132;-2.084;2022-09-09T04:59:51;24.30;;;6.05;;
41657;SDS011;27347;57.132;-2.084;2022-09-09T05:02:17;16.45;;;4.57;;
41657;SDS011;27347;57.132;-2.084;2022-09-09T05:04:42;21.98;;;6.93;;
41657;SDS011;27347;57.132;-2.084;2022-09-09T05:07:08;25.88;;;5.60;;
41657;SDS011;27347;57.132;-2.084;2022-09-09T05:09:33;29.00;;;6.05;;
41657;SDS011;27347;57.132;-2.084;2022-09-09T05:11:59;29.05;;;6.88;;
41657;SDS011;27347;57.132;-2.084;2022-09-09T05:14:24;28.67;;;5.00;;
41657;SDS011;27347;57.132;-2.084;2022-09-09T05:16:50;31.30;;;5.88;;
41657;SDS011;27347;57.132;-2.084;2022-09-09T05:19:15;26.30;;;6.32;;
41657;SDS011;27347;57.132;-2.084;2022-09-09T05:21:44;31.70;;;5.75;;
41657;SDS011;27347;57.132;-2.084;2022-09-09T05:24:09;32.47;;;5.88;;
41657;SDS011;27347;57.132;-2.084;2022-09-09T05:26:35;22.67;;;5.45;;
41657;SDS011;27347;57.132;-2.084;2022-09-09T05:29:01;29.70;;;6.32;;
41657;SDS011;27347;57.132;-2.084;2022-09-09T05:31:27;34.13;;;6.03;;
41657;SDS011;27347;57.132;-2.084;2022-09-09T05:33:55;28.38;;;6.97;;
41657;SDS011;27347;57.132;-2.084;2022-09-09T05:36:20;36.42;;;7.53;;
41657;SDS011;27347;57.132;-2.084;2022-09-09T05:38:47;52.45;;;8.93;;
41657;SDS011;27347;57.132;-2.084;2022-09-09T05:41:13;32.97;;;6.80;;
41657;SDS011;27347;57.132;-2.084;2022-09-09T05:43:42;37.47;;;7.28;;
41657;SDS011;27347;57.132;-2.084;2022-09-09T05:46:21;42.90;;;7.22;;
41657;SDS011;27347;57.132;-2.084;2022-09-09T05:48:48;35.60;;;7.28;;
41657;SDS011;27347;57.132;-2.084;2022-09-09T05:51:19;32.53;;;7.00;;
41657;SDS011;27347;57.132;-2.084;2022-09-09T05:53:47;36.55;;;8.07;;
41657;SDS011;27347;57.132;-2.084;2022-09-09T05:58:45;39.63;;;7.63;;
41657;SDS011;27347;57.132;-2.084;2022-09-09T06:03:53;46.65;;;8.52;;
41657;SDS011;27347;57.132;-2.084;2022-09-09T06:06:23;42.10;;;7.72;;
41657;SDS011;27347;57.132;-2.084;2022-09-09T06:08:52;36.45;;;7.05;;
41657;SDS011;27347;57.132;-2.084;2022-09-09T06:11:22;38.90;;;7.43;;
41657;SDS011;27347;57.132;-2.084;2022-09-09T06:13:49;39.95;;;7.68;;
41657;SDS011;27347;57.132;-2.084;2022-09-09T06:16:18;45.03;;;7.47;;
41657;SDS011;27347;57.132;-2.084;2022-09-09T06:18:45;27.85;;;6.47;;
41657;SDS011;27347;57.132;-2.084;2022-09-09T06:21:17;28.95;;;5.93;;
41657;SDS011;27347;57.132;-2.084;2022-09-09T06:23:44;48.95;;;7.97;;
41657;SDS011;27347;57.132;-2.084;2022-09-09T06:26:12;31.50;;;6.53;;
41657;SDS011;27347;57.132;-2.084;2022-09-09T06:28:42;28.52;;;7.28;;
41657;SDS011;27347;57.132;-2.084;2022-09-09T06:31:09;42.03;;;7.70;;
41657;SDS011;27347;57.132;-2.084;2022-09-09T06:33:39;43.50;;;9.40;;
41657;SDS011;27347;57.132;-2.084;2022-09-09T06:36:16;37.08;;;8.40;;
41657;SDS011;27347;57.132;-2.084;2022-09-09T06:38:44;34.50;;;6.80;;
41657;SDS011;27347;57.132;-2.084;2022-09-09T06:41:11;44.15;;;8.13;;
41657;SDS011;27347;57.132;-2.084;2022-09-09T06:43:38;34.10;;;7.30;;
41657;SDS011;27347;57.132;-2.084;2022-09-09T06:48:40;31.48;;;6.13;;
41657;SDS011;27347;57.132;-2.084;2022-09-09T06:53:39;36.55;;;6.97;;
41657;SDS011;27347;57.132;-2.084;2022-09-09T06:58:48;33.67;;;6.72;;
41657;SDS011;27347;57.132;-2.084;2022-09-09T07:01:18;39.80;;;7.72;;
41657;SDS011;27347;57.132;-2.084;2022-09-09T07:03:46;42.90;;;8.27;;
41657;SDS011;27347;57.132;-2.084;2022-09-09T07:06:14;36.00;;;6.80;;
41657;SDS011;27347;57.132;-2.084;2022-09-09T07:08:42;45.70;;;6.72;;
41657;SDS011;27347;57.132;-2.084;2022-09-09T07:11:08;44.45;;;6.10;;
41657;SDS011;27347;57.132;-2.084;2022-09-09T07:13:34;30.73;;;8.05;;
41657;SDS011;27347;57.132;-2.084;2022-09-09T07:16:14;37.92;;;6.22;;
41657;SDS011;27347;57.132;-2.084;2022-09-09T07:18:42;35.63;;;6.82;;
41657;SDS011;27347;57.132;-2.084;2022-09-09T07:21:09;39.72;;;6.38;;
41657;SDS011;27347;57.132;-2.084;2022-09-09T07:23:35;32.10;;;5.53;;
41657;SDS011;27347;57.132;-2.084;2022-09-09T07:26:01;25.00;;;5.53;;
41657;SDS011;27347;57.132;-2.084;2022-09-09T07:28:27;29.05;;;5.05;;
41657;SDS011;27347;57.132;-2.084;2022-09-09T07:30:57;35.30;;;6.80;;
41657;SDS011;27347;57.132;-2.084;2022-09-09T07:33:24;33.03;;;6.13;;
41657;SDS011;27347;57.132;-2.084;2022-09-09T07:35:50;37.13;;;6.38;;
41657;SDS011;27347;57.132;-2.084;2022-09-09T07:38:16;35.70;;;6.90;;
41657;SDS011;27347;57.132;-2.084;2022-09-09T07:40:44;34.97;;;6.85;;
41657;SDS011;27347;57.132;-2.084;2022-09-09T07:43:10;30.33;;;6.32;;
41657;SDS011;27347;57.132;-2.084;2022-09-09T07:45:36;33.03;;;6.43;;
41657;SDS011;27347;57.132;-2.084;2022-09-09T07:48:02;29.67;;;7.38;;
41657;SDS011;27347;57.132;-2.084;2022-09-09T07:50:28;31.40;;;5.55;;
41657;SDS011;27347;57.132;-2.084;2022-09-09T07:52:53;34.83;;;6.95;;
41657;SDS011;27347;57.132;-2.084;2022-09-09T07:55:19;38.88;;;7.32;;
41657;SDS011;27347;57.132;-2.084;2022-09-09T07:57:45;25.33;;;5.72;;
41657;SDS011;27347;57.132;-2.084;2022-09-09T08:00:11;37.78;;;6.63;;
41657;SDS011;27347;57.132;-2.084;2022-09-09T08:02:37;29.20;;;5.30;;
41657;SDS011;27347;57.132;-2.084;2022-09-09T08:05:03;37.63;;;6.63;;
41657;SDS011;27347;57.132;-2.084;2022-09-09T08:07:30;25.33;;;5.65;;
41657;SDS011;27347;57.132;-2.084;2022-09-09T08:09:55;39.05;;;5.93;;
41657;SDS011;27347;57.132;-2.084;2022-09-09T08:12:22;31.83;;;5.60;;
41657;SDS011;27347;57.132;-2.084;2022-09-09T08:14:48;34.15;;;6.30;;
41657;SDS011;27347;57.132;-2.084;2022-09-09T08:17:13;33.03;;;5.45;;
41657;SDS011;27347;57.132;-2.084;2022-09-09T08:19:39;27.48;;;6.10;;
41657;SDS011;27347;57.132;-2.084;2022-09-09T08:22:04;33.83;;;6.40;;
41657;SDS011;27347;57.132;-2.084;2022-09-09T08:24:31;33.85;;;6.43;;
41657;SDS011;27347;57.132;-2.084;2022-09-09T08:26:56;36.58;;;5.68;;
41657;SDS011;27347;57.132;-2.084;2022-09-09T08:29:22;30.95;;;6.13;;
41657;SDS011;27347;57.132;-2.084;2022-09-09T08:31:51;34.45;;;6.38;;
41657;SDS011;27347;57.132;-2.084;2022-09-09T08:34:19;35.08;;;6.07;;
41657;SDS011;27347;57.132;-2.084;2022-09-09T08:36:45;34.55;;;6.20;;
41657;SDS011;27347;57.132;-2.084;2022-09-09T08:39:12;36.13;;;5.53;;
41657;SDS011;27347;57.132;-2.084;2022-09-09T08:49:30;22.42;;;4.95;;
41657;SDS011;27347;57.132;-2.084;2022-09-09T08:54:44;22.50;;;4.78;;
41657;SDS011;27347;57.132;-2.084;2022-09-09T08:57:11;27.70;;;5.40;;
41657;SDS011;27347;57.132;-2.084;2022-09-09T08:59:40;25.80;;;5.38;;
41657;SDS011;27347;57.132;-2.084;2022-09-09T09:02:16;32.35;;;6.40;;
41657;SDS011;27347;57.132;-2.084;2022-09-09T09:04:58;30.35;;;4.97;;
41657;SDS011;27347;57.132;-2.084;2022-09-09T09:10:45;25.60;;;5.65;;
41657;SDS011;27347;57.132;-2.084;2022-09-09T09:13:13;31.10;;;5.18;;
41657;SDS011;27347;57.132;-2.084;2022-09-09T09:15:42;33.53;;;5.68;;
41657;SDS011;27347;57.132;-2.084;2022-09-09T09:18:10;25.38;;;5.57;;
41657;SDS011;27347;57.132;-2.084;2022-09-09T09:20:58;21.10;;;4.72;;
41657;SDS011;27347;57.132;-2.084;2022-09-09T09:23:42;25.98;;;5.60;;
41657;SDS011;27347;57.132;-2.084;2022-09-09T09:26:15;21.10;;;5.28;;
41657;SDS011;27347;57.132;-2.084;2022-09-09T09:28:41;29.48;;;5.32;;
41657;SDS011;27347;57.132;-2.084;2022-09-09T09:31:08;31.25;;;5.10;;
41657;SDS011;27347;57.132;-2.084;2022-09-09T09:36:13;21.10;;;3.85;;
41657;SDS011;27347;57.132;-2.084;2022-09-09T09:38:51;23.05;;;4.63;;
41657;SDS011;27347;57.132;-2.084;2022-09-09T09:41:28;26.13;;;5.15;;
41657;SDS011;27347;57.132;-2.084;2022-09-09T09:43:55;26.58;;;5.35;;
41657;SDS011;27347;57.132;-2.084;2022-09-09T09:46:21;23.73;;;4.53;;
41657;SDS011;27347;57.132;-2.084;2022-09-09T09:49:01;25.50;;;4.32;;
41657;SDS011;27347;57.132;-2.084;2022-09-09T09:51:30;31.20;;;5.50;;
41657;SDS011;27347;57.132;-2.084;2022-09-09T09:56:38;19.52;;;3.83;;
41657;SDS011;27347;57.132;-2.084;2022-09-09T09:59:04;23.67;;;4.40;;
41657;SDS011;27347;57.132;-2.084;2022-09-09T10:01:31;24.88;;;4.22;;
41657;SDS011;27347;57.132;-2.084;2022-09-09T10:04:18;22.65;;;3.88;;
41657;SDS011;27347;57.132;-2.084;2022-09-09T10:06:48;20.88;;;3.95;;
41657;SDS011;27347;57.132;-2.084;2022-09-09T10:09:32;27.70;;;5.03;;
41657;SDS011;27347;57.132;-2.084;2022-09-09T10:20:40;20.15;;;3.78;;
41657;SDS011;27347;57.132;-2.084;2022-09-09T10:23:52;14.37;;;3.10;;
41657;SDS011;27347;57.132;-2.084;2022-09-09T10:26:44;32.10;;;4.85;;
41657;SDS011;27347;57.132;-2.084;2022-09-09T10:32:19;18.17;;;3.75;;
41657;SDS011;27347;57.132;-2.084;2022-09-09T10:43:10;33.05;;;4.88;;
41657;SDS011;27347;57.132;-2.084;2022-09-09T10:48:24;16.05;;;3.95;;
41657;SDS011;27347;57.132;-2.084;2022-09-09T10:51:23;16.60;;;3.38;;
41657;SDS011;27347;57.132;-2.084;2022-09-09T10:54:19;21.95;;;3.80;;
41657;SDS011;27347;57.132;-2.084;2022-09-09T10:56:42;16.88;;;3.42;;
41657;SDS011;27347;57.132;-2.084;2022-09-09T10:59:16;19.05;;;3.72;;
41657;SDS011;27347;57.132;-2.084;2022-09-09T11:04:17;21.42;;;4.43;;
41657;SDS011;27347;57.132;-2.084;2022-09-09T11:06:48;23.27;;;3.70;;
41657;SDS011;27347;57.132;-2.084;2022-09-09T11:09:18;22.40;;;3.45;;
41657;SDS011;27347;57.132;-2.084;2022-09-09T11:11:55;16.83;;;3.60;;
41657;SDS011;27347;57.132;-2.084;2022-09-09T11:14:29;21.63;;;4.55;;
41657;SDS011;27347;57.132;-2.084;2022-09-09T11:22:06;17.05;;;3.75;;
41657;SDS011;27347;57.132;-2.084;2022-09-09T11:27:51;16.40;;;3.83;;
41657;SDS011;27347;57.132;-2.084;2022-09-09T11:30:19;19.70;;;3.28;;
41657;SDS011;27347;57.132;-2.084;2022-09-09T11:40:56;15.68;;;3.28;;
41657;SDS011;27347;57.132;-2.084;2022-09-09T11:43:38;15.20;;;3.40;;
41657;SDS011;27347;57.132;-2.084;2022-09-09T11:46:06;17.85;;;3.88;;
41657;SDS011;27347;57.132;-2.084;2022-09-09T11:51:10;17.13;;;3.40;;
41657;SDS011;27347;57.132;-2.084;2022-09-09T11:53:55;18.30;;;3.50;;
41657;SDS011;27347;57.132;-2.084;2022-09-09T11:56:44;13.82;;;3.75;;
41657;SDS011;27347;57.132;-2.084;2022-09-09T11:59:22;11.38;;;2.78;;
41657;SDS011;27347;57.132;-2.084;2022-09-09T12:04:44;12.05;;;2.67;;
41657;SDS011;27347;57.132;-2.084;2022-09-09T12:10:32;17.17;;;2.60;;
41657;SDS011;27347;57.132;-2.084;2022-09-09T12:15:54;10.50;;;2.53;;
41657;SDS011;27347;57.132;-2.084;2022-09-09T12:18:36;17.55;;;3.83;;
41657;SDS011;27347;57.132;-2.084;2022-09-09T12:21:14;15.82;;;3.35;;
41657;SDS011;27347;57.132;-2.084;2022-09-09T12:23:58;10.18;;;2.45;;
41657;SDS011;27347;57.132;-2.084;2022-09-09T12:26:31;14.18;;;3.20;;
41657;SDS011;27347;57.132;-2.084;2022-09-09T12:31:46;24.35;;;4.05;;
41657;SDS011;27347;57.132;-2.084;2022-09-09T12:34:16;18.63;;;3.70;;
41657;SDS011;27347;57.132;-2.084;2022-09-09T12:36:43;12.93;;;3.10;;
41657;SDS011;27347;57.132;-2.084;2022-09-09T12:39:17;16.55;;;3.20;;
41657;SDS011;27347;57.132;-2.084;2022-09-09T12:41:52;17.15;;;2.95;;
41657;SDS011;27347;57.132;-2.084;2022-09-09T12:44:22;13.10;;;2.60;;
41657;SDS011;27347;57.132;-2.084;2022-09-09T12:46:49;16.77;;;2.80;;
41657;SDS011;27347;57.132;-2.084;2022-09-09T12:49:31;9.07;;;2.33;;
41657;SDS011;27347;57.132;-2.084;2022-09-09T12:54:30;8.93;;;2.47;;
41657;SDS011;27347;57.132;-2.084;2022-09-09T12:56:56;13.75;;;2.97;;
41657;SDS011;27347;57.132;-2.084;2022-09-09T12:59:26;17.00;;;2.83;;
41657;SDS011;27347;57.132;-2.084;2022-09-09T13:02:00;8.18;;;2.20;;
41657;SDS011;27347;57.132;-2.084;2022-09-09T13:04:26;13.45;;;2.40;;
41657;SDS011;27347;57.132;-2.084;2022-09-09T13:06:51;17.45;;;2.90;;
41657;SDS011;27347;57.132;-2.084;2022-09-09T13:09:17;13.48;;;2.58;;
41657;SDS011;27347;57.132;-2.084;2022-09-09T13:11:48;15.43;;;2.85;;
41657;SDS011;27347;57.132;-2.084;2022-09-09T13:14:16;10.25;;;2.47;;
41657;SDS011;27347;57.132;-2.084;2022-09-09T13:16:54;13.40;;;2.63;;
41657;SDS011;27347;57.132;-2.084;2022-09-09T13:19:24;8.98;;;2.13;;
41657;SDS011;27347;57.132;-2.084;2022-09-09T13:21:53;10.02;;;2.03;;
41657;SDS011;27347;57.132;-2.084;2022-09-09T13:24:25;15.23;;;3.08;;
41657;SDS011;27347;57.132;-2.084;2022-09-09T13:26:59;10.02;;;2.47;;
41657;SDS011;27347;57.132;-2.084;2022-09-09T13:29:27;12.25;;;2.67;;
41657;SDS011;27347;57.132;-2.084;2022-09-09T13:31:53;13.57;;;3.22;;
41657;SDS011;27347;57.132;-2.084;2022-09-09T13:34:31;10.45;;;2.63;;
41657;SDS011;27347;57.132;-2.084;2022-09-09T13:37:01;10.32;;;2.22;;
41657;SDS011;27347;57.132;-2.084;2022-09-09T13:39:30;18.08;;;2.50;;
41657;SDS011;27347;57.132;-2.084;2022-09-09T13:41:57;7.38;;;2.13;;
41657;SDS011;27347;57.132;-2.084;2022-09-09T13:44:24;14.75;;;2.67;;
41657;SDS011;27347;57.132;-2.084;2022-09-09T13:47:04;10.35;;;2.35;;
41657;SDS011;27347;57.132;-2.084;2022-09-09T13:49:31;12.38;;;2.63;;
41657;SDS011;27347;57.132;-2.084;2022-09-09T13:52:17;8.65;;;2.22;;
41657;SDS011;27347;57.132;-2.084;2022-09-09T13:54:47;7.00;;;1.88;;
41657;SDS011;27347;57.132;-2.084;2022-09-09T13:57:23;8.90;;;2.08;;
41657;SDS011;27347;57.132;-2.084;2022-09-09T13:59:50;13.13;;;2.25;;
41657;SDS011;27347;57.132;-2.084;2022-09-09T14:02:22;11.27;;;2.70;;
41657;SDS011;27347;57.132;-2.084;2022-09-09T14:04:49;8.15;;;2.33;;
41657;SDS011;27347;57.132;-2.084;2022-09-09T14:07:16;8.18;;;2.80;;
41657;SDS011;27347;57.132;-2.084;2022-09-09T14:09:42;9.20;;;2.33;;
41657;SDS011;27347;57.132;-2.084;2022-09-09T14:12:09;13.45;;;2.40;;
41657;SDS011;27347;57.132;-2.084;2022-09-09T14:14:36;8.25;;;2.53;;
41657;SDS011;27347;57.132;-2.084;2022-09-09T14:17:01;13.68;;;2.78;;
41657;SDS011;27347;57.132;-2.084;2022-09-09T14:19:27;7.35;;;2.13;;
41657;SDS011;27347;57.132;-2.084;2022-09-09T14:21:52;7.03;;;1.77;;
41657;SDS011;27347;57.132;-2.084;2022-09-09T14:24:17;14.30;;;2.70;;
41657;SDS011;27347;57.132;-2.084;2022-09-09T14:26:43;14.57;;;2.88;;
41657;SDS011;27347;57.132;-2.084;2022-09-09T14:29:08;10.68;;;2.92;;
41657;SDS011;27347;57.132;-2.084;2022-09-09T14:31:34;13.93;;;2.53;;
41657;SDS011;27347;57.132;-2.084;2022-09-09T14:33:59;12.00;;;2.60;;
41657;SDS011;27347;57.132;-2.084;2022-09-09T14:36:25;14.38;;;2.90;;
41657;SDS011;27347;57.132;-2.084;2022-09-09T14:38:50;12.73;;;2.60;;
41657;SDS011;27347;57.132;-2.084;2022-09-09T14:41:19;8.85;;;2.22;;
41657;SDS011;27347;57.132;-2.084;2022-09-09T14:43:47;12.35;;;2.75;;
41657;SDS011;27347;57.132;-2.084;2022-09-09T14:46:14;10.50;;;2.83;;
41657;SDS011;27347;57.132;-2.084;2022-09-09T14:48:40;9.90;;;2.58;;
41657;SDS011;27347;57.132;-2.084;2022-09-09T14:51:11;12.63;;;3.10;;
41657;SDS011;27347;57.132;-2.084;2022-09-09T14:53:41;15.05;;;3.05;;
41657;SDS011;27347;57.132;-2.084;2022-09-09T14:56:17;19.35;;;3.38;;
41657;SDS011;27347;57.132;-2.084;2022-09-09T14:58:43;9.13;;;2.15;;
41657;SDS011;27347;57.132;-2.084;2022-09-09T15:01:13;14.48;;;2.63;;
41657;SDS011;27347;57.132;-2.084;2022-09-09T15:03:40;6.63;;;2.30;;
41657;SDS011;27347;57.132;-2.084;2022-09-09T15:06:07;12.85;;;2.50;;
41657;SDS011;27347;57.132;-2.084;2022-09-09T15:08:38;15.35;;;2.30;;
41657;SDS011;27347;57.132;-2.084;2022-09-09T15:11:05;14.73;;;3.10;;
41657;SDS011;27347;57.132;-2.084;2022-09-09T15:13:32;13.00;;;2.85;;
41657;SDS011;27347;57.132;-2.084;2022-09-09T15:16:03;11.70;;;2.15;;
41657;SDS011;27347;57.132;-2.084;2022-09-09T15:18:35;15.77;;;2.95;;
41657;SDS011;27347;57.132;-2.084;2022-09-09T15:21:01;18.23;;;3.05;;
41657;SDS011;27347;57.132;-2.084;2022-09-09T15:23:31;13.55;;;2.72;;
41657;SDS011;27347;57.132;-2.084;2022-09-09T15:25:59;12.63;;;2.65;;
41657;SDS011;27347;57.132;-2.084;2022-09-09T15:28:25;13.05;;;2.70;;
41657;SDS011;27347;57.132;-2.084;2022-09-09T15:30:51;15.35;;;2.50;;
41657;SDS011;27347;57.132;-2.084;2022-09-09T15:33:21;11.02;;;2.13;;
41657;SDS011;27347;57.132;-2.084;2022-09-09T15:35:47;9.27;;;2.00;;
41657;SDS011;27347;57.132;-2.084;2022-09-09T15:38:14;17.55;;;2.40;;
41657;SDS011;27347;57.132;-2.084;2022-09-09T15:40:41;12.60;;;2.38;;
41657;SDS011;27347;57.132;-2.084;2022-09-09T15:43:07;6.63;;;2.05;;
41657;SDS011;27347;57.132;-2.084;2022-09-09T15:45:34;11.38;;;2.17;;
41657;SDS011;27347;57.132;-2.084;2022-09-09T15:48:00;12.30;;;2.95;;
41657;SDS011;27347;57.132;-2.084;2022-09-09T15:50:26;11.35;;;2.30;;
41657;SDS011;27347;57.132;-2.084;2022-09-09T15:52:52;8.88;;;2.10;;
41657;SDS011;27347;57.132;-2.084;2022-09-09T15:55:18;18.50;;;2.97;;
41657;SDS011;27347;57.132;-2.084;2022-09-09T15:57:45;9.80;;;1.92;;
41657;SDS011;27347;57.132;-2.084;2022-09-09T16:00:11;12.50;;;2.40;;
41657;SDS011;27347;57.132;-2.084;2022-09-09T16:02:38;9.40;;;2.53;;
41657;SDS011;27347;57.132;-2.084;2022-09-09T16:05:03;10.13;;;2.78;;
41657;SDS011;27347;57.132;-2.084;2022-09-09T16:07:29;15.82;;;3.47;;
41657;SDS011;27347;57.132;-2.084;2022-09-09T16:09:55;11.10;;;2.92;;
41657;SDS011;27347;57.132;-2.084;2022-09-09T16:12:20;12.00;;;3.50;;
41657;SDS011;27347;57.132;-2.084;2022-09-09T16:14:46;20.25;;;3.63;;
41657;SDS011;27347;57.132;-2.084;2022-09-09T16:17:11;19.38;;;3.20;;
41657;SDS011;27347;57.132;-2.084;2022-09-09T16:19:37;16.23;;;3.08;;
41657;SDS011;27347;57.132;-2.084;2022-09-09T16:22:03;14.38;;;2.90;;
41657;SDS011;27347;57.132;-2.084;2022-09-09T16:24:29;13.25;;;3.00;;
41657;SDS011;27347;57.132;-2.084;2022-09-09T16:26:54;21.60;;;4.30;;
41657;SDS011;27347;57.132;-2.084;2022-09-09T16:29:21;13.25;;;2.78;;
41657;SDS011;27347;57.132;-2.084;2022-09-09T16:31:47;15.55;;;3.13;;
41657;SDS011;27347;57.132;-2.084;2022-09-09T16:34:14;18.17;;;3.65;;
41657;SDS011;27347;57.132;-2.084;2022-09-09T16:36:40;14.63;;;2.97;;
41657;SDS011;27347;57.132;-2.084;2022-09-09T16:39:11;12.85;;;3.47;;
41657;SDS011;27347;57.132;-2.084;2022-09-09T16:41:40;19.42;;;3.13;;
41657;SDS011;27347;57.132;-2.084;2022-09-09T16:44:07;14.85;;;3.13;;
41657;SDS011;27347;57.132;-2.084;2022-09-09T16:46:34;16.75;;;3.25;;
41657;SDS011;27347;57.132;-2.084;2022-09-09T16:49:02;15.60;;;3.15;;
41657;SDS011;27347;57.132;-2.084;2022-09-09T16:51:29;13.02;;;3.10;;
41657;SDS011;27347;57.132;-2.084;2022-09-09T16:53:57;12.25;;;3.05;;
41657;SDS011;27347;57.132;-2.084;2022-09-09T16:56:25;16.08;;;4.03;;